createdAt,value
2023-01-17T00:02:16.574Z,96986.31
2023-01-17T00:05:02.347Z,96979.44
2023-01-17T00:07:48.196Z,96979.88
2023-01-17T00:10:23.594Z,96992.47
2023-01-17T00:12:57.490Z,96990.03
2023-01-17T00:15:25.991Z,96991.31
2023-01-17T00:17:53.669Z,96995.16
2023-01-17T00:20:56.591Z,96983.81
2023-01-17T00:24:00.972Z,97000.88
2023-01-17T00:26:28.032Z,96996.63
2023-01-17T00:28:54.899Z,96998.88
2023-01-17T00:31:21.789Z,97004.38
2023-01-17T00:33:48.670Z,97006.41
2023-01-17T00:36:15.569Z,97010.06
2023-01-17T00:38:42.420Z,97013.94
2023-01-17T00:41:14.639Z,97013.34
2023-01-17T00:44:00.224Z,97021.47
2023-01-17T00:46:45.602Z,97027.97
2023-01-17T00:49:31.494Z,97027.38
2023-01-17T00:52:16.787Z,97051.31
2023-01-17T00:55:02.086Z,97052.53
2023-01-17T00:57:48.088Z,97059.63
2023-01-17T01:00:35.626Z,97059.63
2023-01-17T01:03:28.488Z,97063.28
2023-01-17T01:06:13.615Z,97061.66
2023-01-17T01:08:58.929Z,97076.69
2023-01-17T01:11:44.234Z,97077.47
2023-01-17T01:14:29.773Z,97077.47
2023-01-17T01:17:15.031Z,97075.66
2023-01-17T01:20:00.203Z,97086.41
2023-01-17T01:22:46.028Z,97075.25
2023-01-17T01:25:31.232Z,97079.94
2023-01-17T01:28:31.072Z,97081.97
2023-01-17T01:31:23.506Z,97094.56
2023-01-17T01:33:52.152Z,97093.38
2023-01-17T01:36:19.571Z,97090.13
2023-01-17T01:38:46.549Z,97092.16
2023-01-17T01:41:13.494Z,97095.81
2023-01-17T01:43:47.315Z,97101.09
2023-01-17T01:46:20.169Z,97104.75
2023-01-17T01:49:04.438Z,97103.13
2023-01-17T01:51:39.903Z,97102.31
2023-01-17T01:54:25.521Z,97112.03
2023-01-17T01:56:54.566Z,97104.16
2023-01-17T01:59:23.463Z,97111.84
2023-01-17T02:01:53.269Z,97100.50
2023-01-17T02:04:21.575Z,97096.25
2023-01-17T02:06:53.279Z,97103.94
2023-01-17T02:09:20.743Z,97099.47
2023-01-17T02:11:49.873Z,97110.00
2023-01-17T02:14:19.205Z,97099.47
2023-01-17T02:17:35.470Z,97099.47
2023-01-17T02:20:58.564Z,97102.09
2023-01-17T02:24:06.486Z,97098.44
2023-01-17T02:26:45.858Z,97096.03
2023-01-17T02:29:47.553Z,97088.13
2023-01-17T02:32:58.940Z,97094.19
2023-01-17T02:35:33.896Z,97107.38
2023-01-17T02:38:17.569Z,97094.19
2023-01-17T02:41:01.479Z,97075.56
2023-01-17T02:43:29.195Z,97084.47
2023-01-17T02:45:56.179Z,97082.66
2023-01-17T02:48:27.925Z,97089.53
2023-01-17T02:51:52.301Z,97083.44
2023-01-17T02:54:56.392Z,97083.22
2023-01-17T02:58:07.123Z,97094.59
2023-01-17T03:01:16.138Z,97085.28
2023-01-17T03:03:53.322Z,97077.97
2023-01-17T03:06:35.045Z,97083.22
2023-01-17T03:09:02.753Z,97085.88
2023-01-17T03:11:29.786Z,97093.78
2023-01-17T03:13:57.654Z,97104.31
2023-01-17T03:16:28.518Z,97119.91
2023-01-17T03:18:55.498Z,97119.69
2023-01-17T03:21:23.629Z,97110.19
2023-01-17T03:23:50.799Z,97126.00
2023-01-17T03:26:18.049Z,97135.09
2023-01-17T03:28:45.017Z,97123.97
2023-01-17T03:31:17.000Z,97130.47
2023-01-17T03:33:43.958Z,97127.44
2023-01-17T03:36:11.920Z,97128.91
2023-01-17T03:38:39.070Z,97137.41
2023-01-17T03:41:06.684Z,97134.38
2023-01-17T03:43:33.679Z,97131.38
2023-01-17T03:46:07.106Z,97134.41
2023-01-17T03:48:34.345Z,97129.56
2023-01-17T03:51:01.255Z,97136.88
2023-01-17T03:53:28.142Z,97132.00
2023-01-17T03:55:55.122Z,97131.41
2023-01-17T03:58:22.066Z,97136.06
2023-01-17T04:00:49.009Z,97127.38
2023-01-17T04:03:15.914Z,97130.22
2023-01-17T04:05:42.862Z,97132.03
2023-01-17T04:08:09.755Z,97125.97
2023-01-17T04:10:36.689Z,97123.56
2023-01-17T04:13:03.655Z,97122.75
2023-01-17T04:15:30.665Z,97125.38
2023-01-17T04:17:58.192Z,97123.56
2023-01-17T04:20:38.935Z,97120.13
2023-01-17T04:23:06.878Z,97113.03
2023-01-17T04:25:34.416Z,97104.09
2023-01-17T04:28:04.200Z,97115.44
2023-01-17T04:30:33.025Z,97119.47
2023-01-17T04:33:00.134Z,97121.91
2023-01-17T04:35:28.977Z,97128.78
2023-01-17T04:37:55.863Z,97137.28
2023-01-17T04:40:23.122Z,97137.88
2023-01-17T04:42:51.189Z,97138.66
2023-01-17T04:45:18.159Z,97140.09
2023-01-17T04:47:45.079Z,97126.94
2023-01-17T04:50:12.559Z,97126.72
2023-01-17T04:52:39.612Z,97134.41
2023-01-17T04:55:07.784Z,97129.94
2023-01-17T04:57:34.694Z,97128.13
2023-01-17T05:00:01.766Z,97125.50
2023-01-17T05:02:28.705Z,97126.31
2023-01-17T05:04:55.647Z,97132.41
2023-01-17T05:07:22.538Z,97127.13
2023-01-17T05:09:49.437Z,97122.66
2023-01-17T05:12:16.376Z,97130.34
2023-01-17T05:14:43.283Z,97123.25
2023-01-17T05:17:11.182Z,97124.88
2023-01-17T05:19:38.295Z,97124.06
2023-01-17T05:22:15.035Z,97124.66
2023-01-17T05:24:47.585Z,97120.41
2023-01-17T05:27:15.771Z,97122.25
2023-01-17T05:29:43.111Z,97116.16
2023-01-17T05:32:10.121Z,97125.69
2023-01-17T05:34:37.135Z,97133.34
2023-01-17T05:37:04.132Z,97124.66
2023-01-17T05:39:31.393Z,97124.66
2023-01-17T05:41:59.594Z,97114.94
2023-01-17T05:44:27.593Z,97131.56
2023-01-17T05:46:55.140Z,97124.66
2023-01-17T05:49:22.046Z,97131.56
2023-01-17T05:51:48.967Z,97135.19
2023-01-17T05:54:16.014Z,97128.94
2023-01-17T05:56:42.919Z,97134.38
2023-01-17T05:59:11.095Z,97130.94
2023-01-17T06:01:39.506Z,97124.66
2023-01-17T06:04:06.409Z,97120.41
2023-01-17T06:06:33.323Z,97118.81
2023-01-17T06:09:00.256Z,97117.19
2023-01-17T06:11:27.154Z,97106.06
2023-01-17T06:13:54.065Z,97107.06
2023-01-17T06:16:21.066Z,97109.69
2023-01-17T06:18:48.056Z,97105.66
2023-01-17T06:21:14.979Z,97099.59
2023-01-17T06:23:41.936Z,97109.31
2023-01-17T06:26:10.341Z,97099.00
2023-01-17T06:28:37.370Z,97099.81
2023-01-17T06:31:09.210Z,97100.03
2023-01-17T06:33:36.347Z,97100.03
2023-01-17T06:36:03.782Z,97100.03
2023-01-17T06:38:30.867Z,97093.94
2023-01-17T06:41:00.243Z,97101.03
2023-01-17T06:43:28.595Z,97095.16
2023-01-17T06:45:55.583Z,97092.75
2023-01-17T06:48:22.510Z,97103.28
2023-01-17T06:50:49.811Z,97098.22
2023-01-17T06:53:16.946Z,97101.03
2023-01-17T06:55:43.924Z,97091.53
2023-01-17T06:58:10.830Z,97089.13
2023-01-17T07:00:40.470Z,97083.84
2023-01-17T07:03:26.179Z,97078.81
2023-01-17T07:05:53.363Z,97090.34
2023-01-17T07:08:20.635Z,97088.53
2023-01-17T07:10:48.901Z,97081.03
2023-01-17T07:13:15.830Z,97078.63
2023-01-17T07:15:42.785Z,97076.22
2023-01-17T07:18:09.680Z,97070.34
2023-01-17T07:20:38.295Z,97067.72
2023-01-17T07:23:06.641Z,97065.28
2023-01-17T07:25:33.546Z,97074.19
2023-01-17T07:28:00.493Z,97069.94
2023-01-17T07:30:27.623Z,97074.41
2023-01-17T07:32:55.160Z,97066.50
2023-01-17T07:35:26.585Z,97065.91
2023-01-17T07:37:54.661Z,97060.44
2023-01-17T07:40:22.732Z,97062.28
2023-01-17T07:42:49.797Z,97060.44
2023-01-17T07:45:17.272Z,97062.47
2023-01-17T07:47:44.657Z,97062.47
2023-01-17T07:50:11.864Z,97060.03
2023-01-17T07:52:38.863Z,97055.78
2023-01-17T07:55:06.691Z,97053.38
2023-01-17T07:57:33.588Z,97055.22
2023-01-17T08:00:00.590Z,97054.81
2023-01-17T08:02:27.495Z,97058.44
2023-01-17T08:04:54.550Z,97056.03
2023-01-17T08:07:21.490Z,97053.63
2023-01-17T08:09:50.048Z,97053.81
2023-01-17T08:12:17.364Z,97047.56
2023-01-17T08:14:44.830Z,97037.03
2023-01-17T08:17:14.993Z,97043.09
2023-01-17T08:19:42.072Z,97044.50
2023-01-17T08:22:09.172Z,97032.16
2023-01-17T08:24:36.084Z,97026.47
2023-01-17T08:27:03.099Z,97025.25
2023-01-17T08:29:30.151Z,97025.84
2023-01-17T08:31:57.171Z,97025.44
2023-01-17T08:34:24.105Z,97020.75
2023-01-17T08:36:53.894Z,97018.72
2023-01-17T08:39:21.805Z,97026.22
2023-01-17T08:41:48.761Z,97028.63
2023-01-17T08:44:15.785Z,97033.66
2023-01-17T08:46:44.080Z,97025.38
2023-01-17T08:49:11.815Z,97025.16
2023-01-17T08:51:38.762Z,97027.56
2023-01-17T08:54:05.903Z,97037.06
2023-01-17T08:56:32.901Z,97030.59
2023-01-17T08:58:59.800Z,97035.22
2023-01-17T09:01:26.760Z,97033.19
2023-01-17T09:03:53.842Z,97031.16
2023-01-17T09:06:20.811Z,97036.81
2023-01-17T09:08:49.465Z,97038.81
2023-01-17T09:11:17.846Z,97048.13
2023-01-17T09:13:45.012Z,97043.66
2023-01-17T09:16:12.124Z,97045.84
2023-01-17T09:18:39.148Z,97046.88
2023-01-17T09:21:14.878Z,97045.63
2023-01-17T09:23:42.662Z,97050.91
2023-01-17T09:26:23.443Z,97050.09
2023-01-17T09:28:51.089Z,97052.53
2023-01-17T09:31:20.683Z,97055.38
2023-01-17T09:33:49.995Z,97065.91
2023-01-17T09:36:17.840Z,97062.69
2023-01-17T09:38:45.088Z,97073.22
2023-01-17T09:41:31.212Z,97062.69
2023-01-17T09:44:26.196Z,97064.28
2023-01-17T09:47:00.108Z,97059.59
2023-01-17T09:49:47.103Z,97067.50
2023-01-17T09:52:18.290Z,97067.31
2023-01-17T09:54:48.984Z,97062.63
2023-01-17T09:57:42.764Z,97065.44
2023-01-17T10:00:54.355Z,97066.03
2023-01-17T10:03:55.733Z,97070.69
2023-01-17T10:06:44.448Z,97071.28
2023-01-17T10:09:27.714Z,97067.41
2023-01-17T10:12:24.751Z,97075.69
2023-01-17T10:15:46.050Z,97067.34
2023-01-17T10:18:47.912Z,97066.94
2023-01-17T10:21:45.956Z,97064.09
2023-01-17T10:24:38.723Z,97063.69
2023-01-17T10:27:19.753Z,97069.31
2023-01-17T10:29:49.540Z,97059.97
2023-01-17T10:32:16.756Z,97053.47
2023-01-17T10:34:50.054Z,97041.47
2023-01-17T10:37:28.378Z,97043.09
2023-01-17T10:40:02.391Z,97038.84
2023-01-17T10:43:04.795Z,97039.22
2023-01-17T10:45:43.327Z,97037.19
2023-01-17T10:48:43.662Z,97032.72
2023-01-17T10:51:21.827Z,97034.31
2023-01-17T10:54:36.884Z,97030.66
2023-01-17T10:57:04.056Z,97022.53
2023-01-17T10:59:38.032Z,97022.13
2023-01-17T11:02:25.892Z,97013.19
2023-01-17T11:04:55.641Z,97009.88
2023-01-17T11:07:28.489Z,97013.72
2023-01-17T11:09:57.689Z,97004.78
2023-01-17T11:12:45.688Z,96996.22
2023-01-17T11:15:12.447Z,96992.72
2023-01-17T11:17:52.820Z,96986.78
2023-01-17T11:20:39.694Z,96987.53
2023-01-17T11:23:21.163Z,96986.22
2023-01-17T11:26:02.656Z,96979.84
2023-01-17T11:28:32.938Z,96977.28
2023-01-17T11:31:07.498Z,96971.47
2023-01-17T11:33:53.875Z,96979.91
2023-01-17T11:36:32.586Z,96967.19
2023-01-17T11:39:21.372Z,96963.66
2023-01-17T11:41:48.751Z,96962.78
2023-01-17T11:44:32.119Z,96948.69
2023-01-17T11:47:14.112Z,96948.22
2023-01-17T11:49:43.964Z,96938.47
2023-01-17T11:52:38.971Z,96929.50
2023-01-17T11:55:06.366Z,96930.78
2023-01-17T11:57:35.867Z,96929.75
2023-01-17T12:00:28.453Z,96921.38
2023-01-17T12:03:17.180Z,96920.56
2023-01-17T12:06:13.505Z,96909.31
2023-01-17T12:09:00.531Z,96901.41
2023-01-17T12:12:20.541Z,96900.50
2023-01-17T12:15:12.007Z,96891.09
2023-01-17T12:18:19.816Z,96887.75
2023-01-17T12:21:15.479Z,96886.06
2023-01-17T12:24:00.703Z,96879.84
2023-01-17T12:26:42.647Z,96877.78
2023-01-17T12:29:49.192Z,96881.03
2023-01-17T12:33:04.392Z,96876.19
2023-01-17T12:35:50.707Z,96871.69
2023-01-17T12:38:32.750Z,96882.84
2023-01-17T12:41:16.428Z,96879.19
2023-01-17T12:43:44.692Z,96873.28
2023-01-17T12:46:44.085Z,96865.72
2023-01-17T12:49:38.747Z,96859.88
2023-01-17T12:52:48.861Z,96849.41
2023-01-17T12:56:16.563Z,96845.97
2023-01-17T12:58:50.999Z,96841.13
2023-01-17T13:01:31.269Z,96840.06
2023-01-17T13:04:28.500Z,96818.63
2023-01-17T13:07:55.787Z,96799.94
2023-01-17T13:10:44.292Z,96808.16
2023-01-17T13:13:24.092Z,96816.25
2023-01-17T13:15:55.623Z,96801.91
2023-01-17T13:18:26.168Z,96797.16
2023-01-17T13:21:17.697Z,96808.47
2023-01-17T13:23:59.279Z,96806.31
2023-01-17T13:26:41.339Z,96802.72
2023-01-17T13:29:58.148Z,96807.25
2023-01-17T13:33:07.179Z,96811.13
2023-01-17T13:35:42.602Z,96802.63
2023-01-17T13:38:57.395Z,96806.69
2023-01-17T13:42:15.180Z,96805.63
2023-01-17T13:44:42.375Z,96802.56
2023-01-17T13:47:18.563Z,96790.72
2023-01-17T13:49:49.421Z,96788.56
2023-01-17T13:52:19.201Z,96805.91
2023-01-17T13:54:58.453Z,96799.59
2023-01-17T13:57:32.835Z,96807.13
2023-01-17T14:00:22.183Z,96806.34
2023-01-17T14:02:51.448Z,96809.44
2023-01-17T14:05:21.259Z,96813.84
2023-01-17T14:08:02.306Z,96814.06
2023-01-17T14:10:45.145Z,96810.31
2023-01-17T14:13:44.384Z,96815.38
2023-01-17T14:16:28.889Z,96812.16
2023-01-17T14:18:56.337Z,96815.72
2023-01-17T14:21:28.604Z,96805.63
2023-01-17T14:24:21.829Z,96799.44
2023-01-17T14:27:12.021Z,96800.13
2023-01-17T14:30:01.670Z,96800.59
2023-01-17T14:32:37.951Z,96811.63
2023-01-17T14:35:06.343Z,96815.78
2023-01-17T14:37:42.661Z,96816.22
2023-01-17T14:40:30.379Z,96820.13
2023-01-17T14:43:11.079Z,96817.94
2023-01-17T14:45:39.501Z,96825.53
2023-01-17T14:48:21.727Z,96824.63
2023-01-17T14:50:52.008Z,96829.53
2023-01-17T14:53:28.498Z,96823.94
2023-01-17T14:56:02.296Z,96827.25
2023-01-17T14:58:34.942Z,96831.38
2023-01-17T15:01:12.248Z,96826.00
2023-01-17T15:03:52.731Z,96815.06
2023-01-17T15:06:40.726Z,96826.91
2023-01-17T15:09:23.781Z,96820.69
2023-01-17T15:11:52.970Z,96822.97
2023-01-17T15:14:34.637Z,96823.06
2023-01-17T15:17:26.676Z,96822.50
2023-01-17T15:20:06.238Z,96821.56
2023-01-17T15:22:33.628Z,96820.19
2023-01-17T15:25:01.007Z,96832.03
2023-01-17T15:27:28.431Z,96832.47
2023-01-17T15:30:01.305Z,96823.38
2023-01-17T15:32:31.156Z,96819.59
2023-01-17T15:34:59.291Z,96819.47
2023-01-17T15:37:36.472Z,96821.75
2023-01-17T15:40:18.538Z,96812.91
2023-01-17T15:42:51.488Z,96817.81
2023-01-17T15:45:31.421Z,96819.50
2023-01-17T15:48:18.785Z,96823.03
2023-01-17T15:50:45.735Z,96815.81
2023-01-17T15:53:35.668Z,96823.38
2023-01-17T15:56:32.490Z,96813.50
2023-01-17T15:59:29.186Z,96810.94
2023-01-17T16:01:57.669Z,96805.31
2023-01-17T16:04:37.192Z,96803.13
2023-01-17T16:07:22.837Z,96798.50
2023-01-17T16:09:50.089Z,96797.34
2023-01-17T16:12:17.032Z,96804.66
2023-01-17T16:15:02.466Z,96808.75
2023-01-17T16:17:31.695Z,96806.59
2023-01-17T16:19:59.105Z,96807.00
2023-01-17T16:22:26.876Z,96810.09
2023-01-17T16:24:57.226Z,96808.72
2023-01-17T16:27:24.159Z,96808.13
2023-01-17T16:29:51.159Z,96812.00
2023-01-17T16:32:18.086Z,96806.97
2023-01-17T16:34:45.007Z,96809.22
2023-01-17T16:37:11.899Z,96810.25
2023-01-17T16:39:39.641Z,96814.94
2023-01-17T16:42:06.533Z,96820.41
2023-01-17T16:44:33.532Z,96818.00
2023-01-17T16:47:01.693Z,96822.69
2023-01-17T16:49:32.424Z,96822.94
2023-01-17T16:51:59.602Z,96820.72
2023-01-17T16:54:27.394Z,96817.28
2023-01-17T16:56:54.330Z,96819.09
2023-01-17T16:59:22.024Z,96820.38
2023-01-17T17:01:50.418Z,96816.13
2023-01-17T17:04:17.477Z,96809.22
2023-01-17T17:06:44.504Z,96807.63
2023-01-17T17:09:11.443Z,96807.03
2023-01-17T17:11:38.450Z,96815.16
2023-01-17T17:14:05.390Z,96813.56
2023-01-17T17:16:32.905Z,96809.28
2023-01-17T17:19:06.338Z,96802.41
2023-01-17T17:21:35.559Z,96812.16
2023-01-17T17:24:03.303Z,96809.50
2023-01-17T17:26:34.808Z,96806.88
2023-01-17T17:29:06.655Z,96815.00
2023-01-17T17:31:33.591Z,96816.84
2023-01-17T17:34:07.375Z,96819.47
2023-01-17T17:36:34.854Z,96828.19
2023-01-17T17:39:04.276Z,96817.88
2023-01-17T17:41:33.964Z,96835.28
2023-01-17T17:44:03.222Z,96831.84
2023-01-17T17:46:31.068Z,96832.88
2023-01-17T17:48:58.756Z,96843.59
2023-01-17T17:51:28.122Z,96843.59
2023-01-17T17:54:00.857Z,96839.34
2023-01-17T17:56:33.111Z,96847.25
2023-01-17T17:59:05.370Z,96851.94
2023-01-17T18:01:32.521Z,96848.50
2023-01-17T18:04:09.799Z,96850.34
2023-01-17T18:06:39.756Z,96847.91
2023-01-17T18:09:11.073Z,96847.13
2023-01-17T18:11:43.095Z,96848.13
2023-01-17T18:14:17.899Z,96849.94
2023-01-17T18:16:47.952Z,96856.47
2023-01-17T18:19:23.262Z,96859.91
2023-01-17T18:21:52.358Z,96861.72
2023-01-17T18:24:28.439Z,96857.72
2023-01-17T18:26:57.907Z,96863.78
2023-01-17T18:29:27.904Z,96864.78
2023-01-17T18:31:58.696Z,96866.59
2023-01-17T18:34:29.721Z,96864.19
2023-01-17T18:36:59.854Z,96873.91
2023-01-17T18:39:30.078Z,96869.91
2023-01-17T18:41:58.080Z,96874.38
2023-01-17T18:44:27.918Z,96871.94
2023-01-17T18:47:02.035Z,96870.31
2023-01-17T18:49:29.577Z,96878.22
2023-01-17T18:51:57.027Z,96878.44
2023-01-17T18:54:25.294Z,96880.50
2023-01-17T18:56:56.232Z,96883.13
2023-01-17T18:59:29.633Z,96885.94
2023-01-17T19:01:58.777Z,96883.75
2023-01-17T19:04:28.507Z,96887.41
2023-01-17T19:06:55.590Z,96887.41
2023-01-17T19:09:22.614Z,96896.34
2023-01-17T19:11:49.973Z,96894.72
2023-01-17T19:14:16.966Z,96900.78
2023-01-17T19:16:43.927Z,96905.25
2023-01-17T19:19:14.501Z,96905.25
2023-01-17T19:21:41.456Z,96904.41
2023-01-17T19:24:12.931Z,96913.16
2023-01-17T19:26:40.224Z,96916.59
2023-01-17T19:29:07.166Z,96921.03
2023-01-17T19:31:43.151Z,96922.66
2023-01-17T19:34:13.563Z,96922.66
2023-01-17T19:36:40.759Z,96926.91
2023-01-17T19:39:12.455Z,96925.88
2023-01-17T19:41:45.216Z,96932.97
2023-01-17T19:44:14.418Z,96931.94
2023-01-17T19:46:41.494Z,96934.34
2023-01-17T19:49:09.156Z,96935.16
2023-01-17T19:51:37.064Z,96930.69
2023-01-17T19:54:06.403Z,96929.88
2023-01-17T19:56:33.482Z,96927.06
2023-01-17T19:59:01.673Z,96932.34
2023-01-17T20:01:33.172Z,96932.13
2023-01-17T20:04:02.260Z,96933.72
2023-01-17T20:06:34.408Z,96937.16
2023-01-17T20:09:02.572Z,96946.88
2023-01-17T20:11:29.677Z,96949.28
2023-01-17T20:13:59.098Z,96954.56
2023-01-17T20:16:29.020Z,96948.50
2023-01-17T20:18:57.312Z,96950.09
2023-01-17T20:21:27.352Z,96949.91
2023-01-17T20:23:56.040Z,96948.88
2023-01-17T20:26:34.616Z,96947.06
2023-01-17T20:29:10.689Z,96949.06
2023-01-17T20:31:39.316Z,96944.84
2023-01-17T20:34:11.436Z,96946.09
2023-01-17T20:36:39.848Z,96942.88
2023-01-17T20:39:08.679Z,96942.88
2023-01-17T20:41:38.596Z,96948.13
2023-01-17T20:44:08.903Z,96945.69
2023-01-17T20:46:40.956Z,96936.97
2023-01-17T20:49:16.695Z,96957.03
2023-01-17T20:51:45.333Z,96955.03
2023-01-17T20:54:15.831Z,96948.97
2023-01-17T20:56:43.262Z,96951.78
2023-01-17T20:59:16.932Z,96956.25
2023-01-17T21:01:44.582Z,96952.00
2023-01-17T21:04:12.847Z,96958.31
2023-01-17T21:06:44.139Z,96948.00
2023-01-17T21:09:14.435Z,96955.50
2023-01-17T21:11:41.403Z,96953.88
2023-01-17T21:14:08.607Z,96948.25
2023-01-17T21:16:35.939Z,96945.81
2023-01-17T21:19:03.181Z,96945.81
2023-01-17T21:21:30.437Z,96945.22
2023-01-17T21:23:59.233Z,96949.69
2023-01-17T21:26:28.217Z,96954.59
2023-01-17T21:28:55.764Z,96947.69
2023-01-17T21:31:33.451Z,96948.69
2023-01-17T21:34:07.270Z,96944.91
2023-01-17T21:36:37.927Z,96939.47
2023-01-17T21:39:11.012Z,96939.06
2023-01-17T21:41:41.023Z,96947.38
2023-01-17T21:44:15.280Z,96945.16
2023-01-17T21:46:42.335Z,96950.03
2023-01-17T21:49:11.750Z,96948.44
2023-01-17T21:51:52.683Z,96949.66
2023-01-17T21:54:45.313Z,96945.63
2023-01-17T21:57:39.615Z,96943.41
2023-01-17T22:00:15.996Z,96950.91
2023-01-17T22:02:45.251Z,96949.53
2023-01-17T22:05:13.228Z,96953.34
2023-01-17T22:07:40.669Z,96960.66
2023-01-17T22:10:08.326Z,96958.25
2023-01-17T22:12:35.237Z,96957.63
2023-01-17T22:15:02.240Z,96964.69
2023-01-17T22:17:30.551Z,96960.25
2023-01-17T22:19:57.492Z,96957.84
2023-01-17T22:22:24.427Z,96960.47
2023-01-17T22:24:51.386Z,96963.31
2023-01-17T22:27:19.814Z,96965.94
2023-01-17T22:29:46.708Z,96959.06
2023-01-17T22:32:13.671Z,96962.72
2023-01-17T22:34:40.632Z,96955.81
2023-01-17T22:37:10.012Z,96967.97
2023-01-17T22:39:38.567Z,96958.66
2023-01-17T22:42:06.538Z,96964.13
2023-01-17T22:44:33.698Z,96964.13
2023-01-17T22:47:00.611Z,96961.94
2023-01-17T22:49:27.501Z,96968.97
2023-01-17T22:51:54.445Z,96970.81
2023-01-17T22:54:22.311Z,96969.63
2023-01-17T22:56:49.217Z,96962.75
2023-01-17T22:59:16.260Z,96962.13
2023-01-17T23:01:43.200Z,96966.81
2023-01-17T23:04:14.361Z,96962.56
2023-01-17T23:06:41.961Z,96963.59
2023-01-17T23:09:15.236Z,96957.69
2023-01-17T23:11:47.068Z,96963.97
2023-01-17T23:14:54.196Z,96960.75
2023-01-17T23:17:44.246Z,96958.34
2023-01-17T23:20:12.181Z,96959.53
2023-01-17T23:22:39.081Z,96956.31
2023-01-17T23:25:12.229Z,96951.06
2023-01-17T23:28:01.663Z,96944.41
2023-01-17T23:30:36.163Z,96954.31
2023-01-17T23:33:12.149Z,96956.34
2023-01-17T23:35:42.671Z,96954.72
2023-01-17T23:38:28.959Z,96947.06
2023-01-17T23:41:24.944Z,96958.56
2023-01-17T23:43:58.593Z,96952.72
2023-01-17T23:46:27.108Z,96956.16
2023-01-17T23:48:55.070Z,96963.22
2023-01-17T23:51:22.607Z,96949.50
2023-01-17T23:53:52.081Z,96946.66
2023-01-17T23:56:22.995Z,96951.09
2023-01-17T23:58:50.386Z,96955.56
